Flight Track Log - Related Links

Times and Time Zones

All times are in EDT time to prevent confusion due to time zone crossing. See the N232CF flight status page for this flight to view local times or setup timezone preferences in your user account.

Time Position Orientation Groundspeed Altitude Reporting Facility
EDT Latitude Longitude Course Direction KTS MPH feet Rate Location/Type
Tue 03:34:09 PM 27.9333 -82.7000 360° North 191 220 600  Level Tampa TRACON
Tue 03:35:09 PM 28.0000 -82.7000 360° North 256 295 2,800 1,700 Climbing Tampa TRACON
Tue 03:36:09 PM 28.0667 -82.7167 348° North 279 321 4,000 1,150 Climbing Tampa TRACON
Tue 03:37:09 PM 28.1500 -82.7333 350° North 282 325 5,100 1,350 Climbing Tampa TRACON
Tue 03:38:09 PM 28.2167 -82.7500 348° North 289 333 6,700 905 Climbing Tampa TRACON
Tue 03:39:15 PM 28.2667 -82.6667 56° Northeast 294 338 7,000 143 Climbing Tampa TRACON
Tue 03:40:15 PM 28.2833 -82.5833 77° East 261 300 7,000  Level Tampa TRACON
Tue 03:41:15 PM 28.2833 -82.5000 90° East 252 290 7,000  Level Tampa TRACON
Tue 03:42:09 PM 28.2667 -82.4333 106° East 268 308 7,000  Level Tampa TRACON
Tue 03:43:09 PM 28.2333 -82.3667 120° Southeast 267 307 7,000 -667 Level Tampa TRACON
Tue 03:44:15 PM 28.1833 -82.2833 124° Southeast 262 302 5,600 -1,429 Descending Tampa TRACON
Tue 03:45:15 PM 28.1333 -82.2167 130° Southeast 258 297 4,000 -1,357 Descending Tampa TRACON
Tue 03:46:10 PM 28.1167 -82.1667 111° Southeast 253 291 3,000 -947 Descending Tampa TRACON
Tue 03:47:09 PM 28.0833 -82.1000 120° Southeast 216 249 2,200 -500 Descending Tampa TRACON
Tue 03:48:10 PM 28.0667 -82.0333 106° East 210 242 2,000 -99 Descending Tampa TRACON
Tue 03:49:10 PM 28.0500 -81.9667 106° East 208 239 2,000 -250 Level Tampa TRACON
Tue 03:50:10 PM 28.0333 -81.9000 106° East 222 255 1,500 -500 Descending Tampa TRACON
Tue 03:52:00 PM 28.0457 -81.7716 77° East  Level FlightAware Approximate
Tue 03:59:00 PM 28.0500 -81.7500 77° East  Level FlightAware Approximate
Tue 04:00:00 PM 28.0629 -81.7533 77° East  Level Estimated
Tue 04:01:00 PM 28.0629 -81.7533 77° East  Level Estimated

Login

Don't have an account? Register now (free) for customized features, flight alerts, and more!